createdAt,value
2022-09-28T00:00:09.565Z,87.78
2022-09-28T00:05:07.774Z,88.00
2022-09-28T00:10:00.977Z,87.57
2022-09-28T00:14:54.145Z,87.54
2022-09-28T00:19:47.315Z,87.99
2022-09-28T00:24:41.906Z,88.22
2022-09-28T00:29:37.007Z,87.90
2022-09-28T00:34:32.387Z,87.98
2022-09-28T00:39:27.121Z,87.00
2022-09-28T00:44:39.337Z,86.46
2022-09-28T00:49:37.141Z,86.83
2022-09-28T00:54:31.335Z,86.92
2022-09-28T00:59:25.159Z,86.97
2022-09-28T01:04:20.134Z,87.80
2022-09-28T01:09:15.567Z,88.24
2022-09-28T01:14:16.821Z,87.54
2022-09-28T01:19:32.837Z,85.69
2022-09-28T01:24:41.153Z,84.72
2022-09-28T01:29:49.382Z,84.42
2022-09-28T01:34:49.469Z,83.74
2022-09-28T01:39:44.555Z,83.64
2022-09-28T01:44:44.171Z,84.56
2022-09-28T01:49:41.230Z,84.81
2022-09-28T01:54:40.065Z,84.65
2022-09-28T01:59:35.954Z,84.10
2022-09-28T02:04:37.146Z,83.94
2022-09-28T02:09:36.371Z,83.62
2022-09-28T02:14:31.116Z,83.36
2022-09-28T02:19:29.430Z,83.63
2022-09-28T02:24:34.271Z,84.41
2022-09-28T02:29:27.750Z,86.66
2022-09-28T02:34:21.098Z,88.10
2022-09-28T02:39:16.991Z,88.77
2022-09-28T02:44:25.601Z,90.01
2022-09-28T02:49:26.872Z,90.74
2022-09-28T02:54:39.372Z,91.13
2022-09-28T02:59:46.007Z,91.62
2022-09-28T03:04:47.322Z,92.67
2022-09-28T03:09:56.194Z,93.23
2022-09-28T03:15:07.266Z,94.86
2022-09-28T03:20:00.835Z,95.25
2022-09-28T03:24:54.166Z,94.37
2022-09-28T03:29:47.414Z,94.33
2022-09-28T03:34:42.425Z,94.52
2022-09-28T03:39:36.461Z,94.80
2022-09-28T03:44:33.100Z,95.20
2022-09-28T03:49:27.106Z,95.74
2022-09-28T03:54:21.795Z,94.32
2022-09-28T03:59:15.263Z,93.70
2022-09-28T04:04:08.464Z,93.02
2022-09-28T04:09:01.725Z,93.13
2022-09-28T04:13:57.128Z,93.43
2022-09-28T04:18:51.270Z,94.18
2022-09-28T04:24:11.748Z,94.24
2022-09-28T04:29:19.693Z,94.44
2022-09-28T04:34:18.450Z,94.96
2022-09-28T04:39:12.234Z,95.41
2022-09-28T04:44:09.068Z,95.63
2022-09-28T04:49:03.565Z,96.09
2022-09-28T04:54:19.138Z,96.85
2022-09-28T04:59:14.125Z,97.38
2022-09-28T05:04:08.996Z,97.52
2022-09-28T05:09:14.225Z,96.80
2022-09-28T05:14:07.590Z,96.47
2022-09-28T05:19:02.204Z,97.43
2022-09-28T05:23:56.223Z,96.49
2022-09-28T05:28:49.908Z,96.57
2022-09-28T05:34:22.397Z,98.12
2022-09-28T05:39:15.566Z,96.93
2022-09-28T05:44:11.676Z,94.85
2022-09-28T05:49:05.026Z,93.38
2022-09-28T05:54:05.424Z,92.76
2022-09-28T05:58:59.831Z,91.24
2022-09-28T06:03:55.884Z,89.16
2022-09-28T06:08:50.155Z,87.28
2022-09-28T06:14:13.851Z,85.12
2022-09-28T06:19:08.811Z,83.54
2022-09-28T06:24:27.715Z,81.33
2022-09-28T06:29:22.282Z,79.31
2022-09-28T06:34:15.847Z,78.48
2022-09-28T06:39:10.853Z,76.54
2022-09-28T06:44:04.504Z,76.09
2022-09-28T06:49:31.412Z,75.20
2022-09-28T06:54:56.386Z,74.00
2022-09-28T06:59:56.073Z,73.89
2022-09-28T07:04:50.661Z,73.43
2022-09-28T07:10:02.956Z,72.67
2022-09-28T07:15:22.945Z,71.39
2022-09-28T07:20:19.587Z,69.31
2022-09-28T07:25:15.123Z,68.85
2022-09-28T07:30:28.633Z,66.98
2022-09-28T07:35:52.919Z,64.32
2022-09-28T07:41:05.486Z,64.64
2022-09-28T07:45:59.166Z,64.38
2022-09-28T07:50:56.902Z,63.89
2022-09-28T07:56:02.330Z,62.57
2022-09-28T08:01:15.398Z,60.96
2022-09-28T08:06:12.734Z,59.38
2022-09-28T08:11:08.598Z,58.99
2022-09-28T08:16:25.290Z,59.24
2022-09-28T08:21:46.327Z,57.59
2022-09-28T08:26:40.263Z,57.50
2022-09-28T08:31:34.927Z,56.52
2022-09-28T08:36:46.201Z,55.56
2022-09-28T08:42:30.396Z,52.85
2022-09-28T08:48:14.495Z,48.58
2022-09-28T08:53:35.252Z,47.83
2022-09-28T08:58:40.981Z,44.64
2022-09-28T09:03:37.781Z,42.63
2022-09-28T09:09:03.993Z,40.87
2022-09-28T09:14:17.951Z,39.33
2022-09-28T09:19:17.739Z,41.38
2022-09-28T09:24:34.406Z,40.22
2022-09-28T09:29:36.533Z,40.20
2022-09-28T09:34:52.849Z,38.73
2022-09-28T09:40:25.069Z,38.23
2022-09-28T09:45:51.373Z,39.45
2022-09-28T09:51:06.955Z,39.13
2022-09-28T09:56:06.988Z,38.86
2022-09-28T10:01:13.733Z,39.55
2022-09-28T10:06:36.054Z,40.51
2022-09-28T10:11:36.644Z,40.31
2022-09-28T10:16:34.639Z,38.73
2022-09-28T10:21:37.628Z,40.29
2022-09-28T10:26:54.003Z,38.94
2022-09-28T10:31:48.608Z,38.56
2022-09-28T10:37:05.572Z,37.87
2022-09-28T10:42:24.366Z,38.43
2022-09-28T10:47:22.402Z,39.39
2022-09-28T10:52:34.422Z,39.14
2022-09-28T10:57:33.876Z,39.06
2022-09-28T11:02:36.706Z,38.57
2022-09-28T11:07:45.329Z,37.22
2022-09-28T11:12:45.800Z,36.97
2022-09-28T11:17:44.062Z,34.30
2022-09-28T11:22:42.491Z,34.06
2022-09-28T11:27:37.334Z,33.01
2022-09-28T11:32:41.170Z,32.71
2022-09-28T11:38:02.123Z,31.10
2022-09-28T11:43:31.941Z,31.29
2022-09-28T11:48:35.344Z,31.39
2022-09-28T11:53:34.748Z,32.75
2022-09-28T11:58:35.966Z,33.29
2022-09-28T12:03:38.962Z,32.98
2022-09-28T12:08:37.505Z,33.64
2022-09-28T12:13:36.431Z,33.48
2022-09-28T12:18:32.973Z,33.14
2022-09-28T12:23:33.354Z,33.56
2022-09-28T12:28:34.742Z,32.93
2022-09-28T12:33:27.883Z,33.36
2022-09-28T12:38:39.747Z,33.34
2022-09-28T12:43:57.522Z,33.17
2022-09-28T12:49:47.586Z,32.89
2022-09-28T12:54:42.158Z,31.66
2022-09-28T12:59:40.394Z,29.07
2022-09-28T13:04:51.565Z,26.15
2022-09-28T13:09:57.928Z,25.75
2022-09-28T13:15:10.438Z,27.81
2022-09-28T13:20:20.729Z,29.46
2022-09-28T13:25:19.073Z,30.86
2022-09-28T13:30:17.319Z,31.92
2022-09-28T13:35:15.103Z,33.23
2022-09-28T13:40:09.226Z,34.26
2022-09-28T13:45:18.889Z,31.79
2022-09-28T13:50:22.470Z,29.82
2022-09-28T13:55:25.032Z,28.54
2022-09-28T14:00:27.421Z,29.13
2022-09-28T14:05:47.661Z,30.04
2022-09-28T14:10:49.901Z,31.77
2022-09-28T14:15:47.455Z,32.98
2022-09-28T14:20:51.938Z,33.72
2022-09-28T14:25:46.641Z,35.43
2022-09-28T14:30:54.237Z,35.96
2022-09-28T14:35:51.956Z,35.80
2022-09-28T14:41:14.095Z,36.15
2022-09-28T14:46:47.009Z,36.62
2022-09-28T14:52:05.925Z,37.18
2022-09-28T14:57:09.452Z,37.28
2022-09-28T15:02:15.536Z,38.27
2022-09-28T15:07:21.563Z,37.85
2022-09-28T15:12:22.643Z,38.63
2022-09-28T15:17:22.096Z,39.29
2022-09-28T15:22:17.765Z,40.15
2022-09-28T15:27:19.191Z,41.40
2022-09-28T15:32:25.391Z,41.75
2022-09-28T15:37:23.829Z,42.49
2022-09-28T15:42:18.911Z,43.03
2022-09-28T15:47:15.682Z,44.46
2022-09-28T15:52:22.194Z,44.77
2022-09-28T15:57:34.480Z,45.58
2022-09-28T16:02:28.205Z,46.56
2022-09-28T16:07:28.866Z,46.57
2022-09-28T16:12:22.257Z,46.96
2022-09-28T16:17:22.703Z,47.65
2022-09-28T16:22:28.000Z,48.11
2022-09-28T16:27:27.799Z,48.72
2022-09-28T16:32:41.834Z,49.86
2022-09-28T16:37:35.365Z,50.95
2022-09-28T16:42:29.436Z,51.55
2022-09-28T16:47:22.631Z,52.18
2022-09-28T16:52:37.516Z,51.90
2022-09-28T16:57:30.736Z,51.13
2022-09-28T17:02:45.683Z,51.29
2022-09-28T17:07:41.894Z,52.09
2022-09-28T17:12:36.108Z,51.63
2022-09-28T17:17:31.587Z,51.47
2022-09-28T17:22:25.358Z,51.16
2022-09-28T17:27:21.758Z,51.00
2022-09-28T17:32:19.717Z,50.93
2022-09-28T17:37:14.814Z,51.72
2022-09-28T17:42:14.202Z,52.14
2022-09-28T17:47:10.555Z,52.43
2022-09-28T17:52:05.232Z,51.36
2022-09-28T17:56:58.404Z,50.68
2022-09-28T18:01:51.733Z,49.87
2022-09-28T18:06:46.597Z,50.94
2022-09-28T18:11:42.410Z,50.98
2022-09-28T18:16:36.170Z,51.41
2022-09-28T18:21:32.351Z,55.92
2022-09-28T18:26:28.452Z,57.21
2022-09-28T18:31:22.351Z,58.58
2022-09-28T18:36:15.630Z,59.95
2022-09-28T18:41:10.247Z,60.95
2022-09-28T18:46:09.396Z,60.99
2022-09-28T18:51:02.897Z,59.08
2022-09-28T18:55:57.066Z,55.43
2022-09-28T19:00:50.563Z,53.58
2022-09-28T19:05:46.364Z,53.49
2022-09-28T19:10:39.926Z,56.05
2022-09-28T19:15:34.749Z,57.69
2022-09-28T19:20:28.742Z,58.63
2022-09-28T19:25:24.056Z,60.26
2022-09-28T19:30:17.484Z,61.75
2022-09-28T19:35:11.081Z,62.67
2022-09-28T19:40:05.947Z,64.14
2022-09-28T19:45:00.751Z,64.98
2022-09-28T19:49:54.130Z,64.96
2022-09-28T19:54:54.553Z,65.45
2022-09-28T19:59:52.359Z,65.10
2022-09-28T20:04:47.528Z,64.90
2022-09-28T20:09:41.091Z,65.76
2022-09-28T20:14:38.272Z,64.81
2022-09-28T20:19:33.771Z,63.25
2022-09-28T20:24:29.364Z,62.94
2022-09-28T20:29:31.629Z,62.62
2022-09-28T20:34:25.148Z,63.74
2022-09-28T20:39:18.718Z,63.42
2022-09-28T20:44:13.408Z,63.89
2022-09-28T20:49:07.808Z,63.20
2022-09-28T20:54:01.046Z,63.35
2022-09-28T20:58:55.390Z,63.65
2022-09-28T21:03:51.686Z,64.23
2022-09-28T21:08:45.961Z,64.71
2022-09-28T21:13:42.006Z,63.82
2022-09-28T21:18:35.146Z,64.63
2022-09-28T21:23:29.748Z,64.13
2022-09-28T21:28:22.901Z,61.94
2022-09-28T21:33:16.064Z,57.55
2022-09-28T21:38:09.266Z,54.43
2022-09-28T21:43:03.885Z,52.70
2022-09-28T21:47:57.075Z,51.23
2022-09-28T21:52:51.670Z,50.08
2022-09-28T21:57:47.167Z,49.63
2022-09-28T22:02:42.533Z,48.68
2022-09-28T22:07:35.695Z,50.29
2022-09-28T22:12:30.141Z,52.08
2022-09-28T22:17:23.552Z,53.76
2022-09-28T22:22:18.074Z,58.53
2022-09-28T22:27:11.273Z,60.32
2022-09-28T22:32:04.457Z,57.61
2022-09-28T22:36:57.701Z,56.76
2022-09-28T22:41:52.647Z,55.70
2022-09-28T22:46:45.927Z,55.79
2022-09-28T22:51:39.682Z,56.11
2022-09-28T22:56:33.000Z,56.60
2022-09-28T23:01:29.464Z,56.98
2022-09-28T23:06:26.047Z,57.38
2022-09-28T23:11:20.152Z,57.19
2022-09-28T23:16:15.088Z,57.01
2022-09-28T23:21:12.785Z,57.08
2022-09-28T23:26:13.767Z,56.87
2022-09-28T23:31:11.426Z,57.14
2022-09-28T23:36:05.007Z,57.48
2022-09-28T23:40:59.664Z,57.24
2022-09-28T23:45:53.087Z,57.19
2022-09-28T23:50:46.901Z,57.40
2022-09-28T23:55:40.047Z,57.12
